Morganville, Kansas
Current Conditions -  °F | °C
As of 5:55 PM on Friday 31 Oct 2014 (Local Time) from KCNK Reporting Station
Clear Clear  
Wind Chill:   Ceiling: Unl
Heat Index:   Visibility: 10mi
Dew Point: -10°   Wind: 6mph
Humidity: 31%   Direction: 90°E
Pressure: 30.44"   Gusts: NA
Location:  39.47°N, 97.2°W
Report Text: KCNK 312255Z AUTO 09005KT 10SM CLR 06/M10 A3044 RMK AO2 SLP316 T00611100
Loading
Personal Weather Stations






























Interactive Weather Map
Tropical Storm Tracking
New forecast layout! Learn more

10-Day Weather Forecast

Advertisements
Track Severe Weather on mobile